Time;durP1;ratioP1;P1;durP2;ratioP2;P2;SDS_P1;SDS_P2;PMS_P1;PMS_P2;Temp;Humidity;BMP_temperature;BMP_pressure;BME280_temperature;BME280_humidity;BME280_pressure;Samples;Min_cycle;Max_cycle;Signal;HPM_P1;HPM_P2
2021/10/18 01:57:57;;;;;;;;;;;12.20;99.90;;;;;;1993671;23;21410;-90
2021/10/18 02:00:23;;;;;;;;;;;12.10;99.90;;;;;;4969353;28;19914;-90
2021/10/18 02:02:50;;;;;;;;;;;12.20;99.90;;;;;;4966427;28;19921;-91
2021/10/18 02:05:19;;;;;;;;;;;12.10;99.90;;;;;;4956593;28;19984;-92
2021/10/18 02:07:45;;;;;;;;;;;12.10;99.90;;;;;;4969604;29;19957;-90
2021/10/18 02:10:12;;;;;;;;;;;12.10;99.90;;;;;;4974989;28;19928;-91
2021/10/18 02:12:38;;;;;;;;;;;12.20;99.90;;;;;;4979384;28;19907;-92
2021/10/18 02:15:04;;;;;;;;;;;12.10;99.90;;;;;;4958671;28;19966;-92
2021/10/18 02:17:29;;;;;;;;;;;12.10;99.90;;;;;;4966637;29;19914;-92
2021/10/18 02:19:55;;;;;;;;;;;12.10;99.90;;;;;;4961694;29;19961;-92
2021/10/18 02:22:21;;;;;;;;;;;12.10;99.90;;;;;;4968578;29;19915;-91
2021/10/18 02:24:46;;;;;;;;;;;12.10;99.90;;;;;;4953450;29;19919;-92
2021/10/18 02:27:12;;;;;;;;;;;12.00;99.90;;;;;;4945140;29;19978;-92
2021/10/18 02:29:37;;;;;;;;;;;11.90;99.90;;;;;;4951591;29;19911;-93
2021/10/18 02:32:03;;;;;;;;;;;11.80;99.90;;;;;;4947527;29;19941;-92
2021/10/18 02:34:29;;;;;;;;;;;11.80;99.90;;;;;;4946194;29;19911;-93
2021/10/18 02:36:54;;;;;;;;;;;11.70;99.90;;;;;;4945336;29;19915;-93
2021/10/18 02:39:20;;;;;;;;;;;11.70;99.90;;;;;;4941922;29;19950;-92
2021/10/18 02:41:48;;;;;;;;;;;11.70;99.90;;;;;;4971515;29;20378;-92
2021/10/18 02:44:14;;;;;;;;;;;11.70;99.90;;;;;;4918683;29;19915;-90
2021/10/18 02:46:40;;;;;;;;;;;11.70;99.90;;;;;;4942867;29;19933;-92
2021/10/18 02:49:06;;;;;;;;;;;11.60;99.90;;;;;;4942313;29;20268;-91
2021/10/18 02:51:31;;;;;;;;;;;11.60;99.90;;;;;;4956459;29;19998;-91
2021/10/18 02:53:57;;;;;;;;;;;11.60;99.90;;;;;;4930623;29;19911;-91
2021/10/18 02:56:22;;;;;;;;;;;11.50;99.90;;;;;;4948543;29;19911;-91
2021/10/18 02:58:48;;;;;;;;;;;11.40;99.90;;;;;;4932485;29;19926;-90
2021/10/18 03:01:17;;;;;;;;;;;11.40;99.90;;;;;;4948572;29;19917;-93
2021/10/18 03:03:42;;;;;;;;;;;11.50;99.90;;;;;;4948640;29;19910;-92
2021/10/18 03:06:08;;;;;;;;;;;11.50;99.90;;;;;;4951303;29;19922;-92
2021/10/18 03:08:34;;;;;;;;;;;11.60;99.90;;;;;;4955022;28;19926;-92
2021/10/18 03:10:59;;;;;;;;;;;11.70;99.90;;;;;;4951499;29;19910;-92
2021/10/18 03:13:25;;;;;;;;;;;11.70;99.90;;;;;;4960421;28;19922;-92
2021/10/18 03:15:51;;;;;;;;;;;11.60;99.90;;;;;;4963986;28;19920;-91
2021/10/18 03:18:16;;;;;;;;;;;11.70;99.90;;;;;;4945291;29;19946;-91
2021/10/18 03:20:42;;;;;;;;;;;11.80;99.90;;;;;;4950545;29;19974;-92
2021/10/18 03:23:07;;;;;;;;;;;11.80;99.90;;;;;;4943256;29;20306;-92
2021/10/18 03:25:36;;;;;;;;;;;11.80;99.90;;;;;;4960240;29;20286;-91
2021/10/18 03:28:02;;;;;;;;;;;11.80;99.90;;;;;;4947160;29;19914;-92
2021/10/18 03:30:31;;;;;;;;;;;11.80;99.90;;;;;;4941502;29;19950;-92
2021/10/18 03:32:57;;;;;;;;;;;11.70;99.90;;;;;;4964835;29;20382;-91
2021/10/18 03:35:23;;;;;;;;;;;11.60;99.90;;;;;;4952531;29;19926;-91
2021/10/18 03:37:49;;;;;;;;;;;11.60;99.90;;;;;;4968575;28;19974;-91
2021/10/18 03:40:15;;;;;;;;;;;11.60;99.90;;;;;;4944535;29;19918;-93
2021/10/18 03:42:41;;;;;;;;;;;11.70;99.90;;;;;;4960106;29;20013;-91
2021/10/18 03:45:07;;;;;;;;;;;11.60;99.90;;;;;;4944317;29;19933;-94
2021/10/18 03:47:33;;;;;;;;;;;11.60;99.90;;;;;;4950383;29;19914;-91
2021/10/18 03:49:58;;;;;;;;;;;11.60;99.90;;;;;;4974189;29;19895;-92
2021/10/18 03:52:35;;;;;;;;;;;11.60;99.90;;;;;;4946645;29;19899;-91
2021/10/18 03:55:00;;;;;;;;;;;11.50;99.90;;;;;;4940464;29;19914;-92
2021/10/18 03:57:26;;;;;;;;;;;11.50;99.90;;;;;;4965346;29;19934;-91
2021/10/18 03:59:52;;;;;;;;;;;11.50;99.90;;;;;;4929351;29;19926;-92
2021/10/18 04:02:17;;;;;;;;;;;11.40;99.90;;;;;;4945401;29;19922;-92
2021/10/18 04:04:43;;;;;;;;;;;11.40;99.90;;;;;;4945517;29;19915;-92
2021/10/18 04:07:09;;;;;;;;;;;11.40;99.90;;;;;;4952807;28;20009;-92
2021/10/18 04:09:34;;;;;;;;;;;11.40;99.90;;;;;;4930133;29;19915;-91
2021/10/18 04:12:00;;;;;;;;;;;11.40;99.90;;;;;;4961457;29;19914;-91
2021/10/18 04:14:26;;;;;;;;;;;11.40;99.90;;;;;;4944856;29;19917;-92
2021/10/18 04:16:52;;;;;;;;;;;11.20;99.90;;;;;;4947365;29;19936;-92
2021/10/18 04:19:26;;;;;;;;;;;11.00;99.90;;;;;;4965723;29;19921;-91
2021/10/18 04:21:51;;;;;;;;;;;10.80;99.90;;;;;;4938505;29;19937;-91
2021/10/18 04:24:17;;;;;;;;;;;10.70;99.90;;;;;;4954806;29;19930;-91
2021/10/18 04:26:43;;;;;;;;;;;10.70;99.90;;;;;;4954387;29;19918;-91
2021/10/18 04:29:08;;;;;;;;;;;10.70;99.90;;;;;;4960609;29;19981;-93
2021/10/18 04:31:34;;;;;;;;;;;10.70;99.90;;;;;;4957969;28;19913;-92
2021/10/18 04:34:00;;;;;;;;;;;10.70;99.90;;;;;;4962429;28;19934;-91
2021/10/18 04:36:26;;;;;;;;;;;10.80;99.90;;;;;;4968566;28;19898;-92
2021/10/18 04:38:52;;;;;;;;;;;11.00;99.90;;;;;;4978042;28;19926;-93
2021/10/18 04:41:18;;;;;;;;;;;11.10;99.90;;;;;;4961904;28;19926;-92
2021/10/18 04:43:43;;;;;;;;;;;11.30;99.90;;;;;;4954517;28;19970;-90
2021/10/18 04:46:09;;;;;;;;;;;11.40;99.90;;;;;;4963928;28;19903;-92
2021/10/18 04:48:35;;;;;;;;;;;11.50;99.90;;;;;;4962241;28;19906;-92
2021/10/18 04:51:00;;;;;;;;;;;11.60;99.90;;;;;;4951654;28;19955;-91
2021/10/18 04:53:26;;;;;;;;;;;11.70;99.90;;;;;;4966277;28;19907;-92
2021/10/18 04:55:51;;;;;;;;;;;11.80;99.90;;;;;;4971552;28;19914;-92
2021/10/18 04:58:17;;;;;;;;;;;11.80;99.90;;;;;;4970962;28;19966;-92
2021/10/18 05:01:20;;;;;;;;;;;11.80;99.90;;;;;;4972332;28;19966;-93
2021/10/18 05:03:46;;;;;;;;;;;11.80;99.90;;;;;;4948171;28;20199;-91
2021/10/18 05:06:12;;;;;;;;;;;11.80;99.90;;;;;;5082414;23;19922;-94
2021/10/18 05:08:37;;;;;;;;;;;11.80;99.90;;;;;;5014926;28;19977;-91
2021/10/18 05:11:03;;;;;;;;;;;11.70;99.90;;;;;;4991953;28;19913;-93
2021/10/18 05:13:29;;;;;;;;;;;11.70;99.90;;;;;;4983844;28;19906;-90
2021/10/18 05:15:55;;;;;;;;;;;11.70;99.90;;;;;;5015030;28;19991;-93
2021/10/18 05:18:21;;;;;;;;;;;11.70;99.90;;;;;;4988169;28;19909;-92
2021/10/18 05:59:43;;;;;;;;;;;11.10;99.90;;;;;;5007127;23;19929;-92
2021/10/18 06:02:09;;;;;;;;;;;11.30;99.90;;;;;;5009480;28;19932;-91
2021/10/18 06:04:38;;;;;;;;;;;11.40;99.90;;;;;;5002546;28;19902;-93
2021/10/18 06:07:03;;;;;;;;;;;11.40;99.90;;;;;;5035052;28;19921;-94
2021/10/18 06:09:29;;;;;;;;;;;11.60;99.90;;;;;;5002363;28;19969;-94
2021/10/18 06:11:55;;;;;;;;;;;11.90;99.90;;;;;;5018403;28;19969;-93
2021/10/18 06:14:21;;;;;;;;;;;11.90;99.90;;;;;;5018632;28;19902;-94
2021/10/18 06:19:23;;;;;;;;;;;11.80;99.90;;;;;;5178732;23;19924;-92
2021/10/18 06:21:49;;;;;;;;;;;11.80;99.90;;;;;;5015794;28;19917;-92
2021/10/18 06:24:17;;;;;;;;;;;11.80;99.90;;;;;;5014524;28;19941;-93
2021/10/18 06:26:43;;;;;;;;;;;11.80;99.90;;;;;;5016809;28;20066;-95
2021/10/18 06:29:10;;;;;;;;;;;11.80;99.90;;;;;;4983128;28;19914;-85
2021/10/18 06:31:41;;;;;;;;;;;11.80;99.90;;;;;;4996156;28;20374;-84
2021/10/18 06:34:06;;;;;;;;;;;11.90;99.90;;;;;;4995751;28;20365;-86
2021/10/18 06:36:32;;;;;;;;;;;11.90;99.90;;;;;;4990698;28;19914;-84
2021/10/18 06:38:57;;;;;;;;;;;11.90;99.90;;;;;;4975610;28;19981;-84
2021/10/18 06:41:24;;;;;;;;;;;12.00;99.90;;;;;;4990905;28;20195;-85
2021/10/18 06:43:49;;;;;;;;;;;12.10;99.90;;;;;;4993906;28;20506;-82
2021/10/18 06:46:15;;;;;;;;;;;12.20;99.90;;;;;;4997954;28;19973;-77
2021/10/18 06:48:41;;;;;;;;;;;12.20;99.90;;;;;;4991236;28;20282;-81
2021/10/18 06:51:06;;;;;;;;;;;12.30;99.90;;;;;;4987747;28;19957;-78
2021/10/18 06:53:33;;;;;;;;;;;12.40;99.90;;;;;;4992971;28;19929;-78
2021/10/18 06:56:02;;;;;;;;;;;12.50;99.90;;;;;;4997749;28;19913;-80
2021/10/18 06:58:27;;;;;;;;;;;12.60;99.90;;;;;;4992305;28;19925;-78
2021/10/18 07:00:53;;;;;;;;;;;12.60;99.90;;;;;;4986050;28;19914;-79
2021/10/18 07:03:19;;;;;;;;;;;12.80;99.90;;;;;;4994102;28;19914;-79
2021/10/18 07:05:44;;;;;;;;;;;13.00;99.90;;;;;;4990881;28;19918;-79
2021/10/18 07:08:10;;;;;;;;;;;13.10;99.90;;;;;;5000152;28;19918;-80
2021/10/18 07:10:38;;;;;;;;;;;13.20;99.90;;;;;;4971631;28;19914;-80
2021/10/18 07:13:09;;;;;;;;;;;13.40;99.90;;;;;;4985928;28;19928;-78
2021/10/18 07:15:35;;;;;;;;;;;13.60;99.90;;;;;;4985789;28;19915;-81
2021/10/18 07:18:00;;;;;;;;;;;13.70;99.90;;;;;;4985634;28;19926;-85
2021/10/18 07:20:26;;;;;;;;;;;13.70;99.90;;;;;;4997382;28;20293;-84
2021/10/18 07:22:56;;;;;;;;;;;13.90;99.90;;;;;;4996844;28;20373;-84
2021/10/18 07:25:21;;;;;;;;;;;14.10;99.90;;;;;;4991558;28;19969;-85
2021/10/18 07:27:47;;;;;;;;;;;14.30;99.90;;;;;;4994750;28;19914;-84
2021/10/18 07:30:13;;;;;;;;;;;14.30;99.90;;;;;;5004059;28;19894;-83
2021/10/18 07:32:43;;;;;;;;;;;14.30;99.90;;;;;;5007876;28;19913;-83
2021/10/18 07:35:11;;;;;;;;;;;14.30;99.90;;;;;;4991627;28;20049;-81
2021/10/18 07:37:36;;;;;;;;;;;14.30;99.90;;;;;;4990168;28;19914;-82
2021/10/18 07:40:03;;;;;;;;;;;14.30;99.90;;;;;;4990543;28;20273;-83
2021/10/18 07:42:28;;;;;;;;;;;14.40;99.90;;;;;;4973008;28;19945;-83
2021/10/18 07:44:54;;;;;;;;;;;14.60;99.90;;;;;;4990996;28;20382;-83
2021/10/18 07:47:20;;;;;;;;;;;14.70;99.90;;;;;;4980436;28;19910;-82
2021/10/18 07:49:46;;;;;;;;;;;14.80;99.90;;;;;;4988947;28;19976;-84
2021/10/18 07:52:18;;;;;;;;;;;14.80;99.90;;;;;;4986731;28;19961;-83
2021/10/18 07:54:44;;;;;;;;;;;14.90;99.90;;;;;;4973506;28;19941;-82
2021/10/18 07:57:10;;;;;;;;;;;15.00;99.90;;;;;;4986895;28;19910;-83
2021/10/18 07:59:36;;;;;;;;;;;15.10;99.90;;;;;;4978935;28;19924;-83
2021/10/18 08:02:02;;;;;;;;;;;15.30;99.90;;;;;;4989472;28;19937;-85
2021/10/18 08:04:28;;;;;;;;;;;15.40;99.90;;;;;;4971560;28;20418;-83
2021/10/18 08:06:53;;;;;;;;;;;15.50;99.90;;;;;;4989123;28;19921;-84
2021/10/18 08:09:20;;;;;;;;;;;15.70;99.90;;;;;;4968750;28;19921;-83
2021/10/18 08:11:46;;;;;;;;;;;15.80;99.90;;;;;;4971577;28;19914;-83
2021/10/18 08:14:12;;;;;;;;;;;15.80;99.90;;;;;;4994877;28;19921;-85
2021/10/18 08:16:37;;;;;;;;;;;15.90;99.90;;;;;;5003991;28;19973;-83
2021/10/18 08:19:03;;;;;;;;;;;16.10;99.90;;;;;;5002703;28;19917;-83
2021/10/18 08:21:28;;;;;;;;;;;16.10;99.90;;;;;;4985942;28;19914;-82
2021/10/18 08:23:54;;;;;;;;;;;16.20;99.90;;;;;;4986125;28;19918;-85
2021/10/18 08:26:19;;;;;;;;;;;16.40;99.90;;;;;;4975127;28;19924;-84
2021/10/18 08:28:45;;;;;;;;;;;16.50;99.90;;;;;;5011049;28;19925;-84
2021/10/18 08:31:11;;;;;;;;;;;16.70;99.90;;;;;;4996473;28;19914;-83
2021/10/18 08:33:37;;;;;;;;;;;16.90;99.90;;;;;;4998486;28;19924;-83
2021/10/18 08:36:05;;;;;;;;;;;16.90;99.90;;;;;;5006425;28;19917;-82
2021/10/18 08:38:47;;;;;;;;;;;16.90;99.90;;;;;;5005309;28;19918;-85
2021/10/18 08:41:20;;;;;;;;;;;16.90;99.90;;;;;;4994544;28;19921;-84
2021/10/18 08:46:30;;;;;;;;;;;17.20;99.90;;;;;;4994556;28;19997;-83
2021/10/18 08:48:57;;;;;;;;;;;17.30;99.90;;;;;;4992136;28;19913;-84
2021/10/18 08:51:22;;;;;;;;;;;17.50;99.90;;;;;;4990181;28;19997;-83
2021/10/18 08:53:48;;;;;;;;;;;17.60;99.90;;;;;;4990809;28;19961;-83
2021/10/18 08:56:14;;;;;;;;;;;17.80;99.90;;;;;;4987321;28;19913;-81
2021/10/18 08:58:40;;;;;;;;;;;17.70;99.90;;;;;;4998329;28;20013;-83
2021/10/18 09:01:05;;;;;;;;;;;17.70;99.90;;;;;;4970391;28;19921;-83
2021/10/18 09:03:32;;;;;;;;;;;17.70;99.90;;;;;;4994625;28;19921;-91
2021/10/18 09:06:08;;;;;;;;;;;17.80;99.90;;;;;;4979266;28;20001;-83
2021/10/18 09:08:35;;;;;;;;;;;17.80;99.90;;;;;;4991959;28;19997;-84
2021/10/18 09:11:01;;;;;;;;;;;17.70;99.90;;;;;;4996667;28;20322;-87
2021/10/18 09:13:27;;;;;;;;;;;17.70;99.90;;;;;;4978548;28;19965;-85
2021/10/18 09:15:52;;;;;;;;;;;17.50;99.90;;;;;;4998467;28;19910;-83
2021/10/18 09:18:19;;;;;;;;;;;17.40;99.90;;;;;;4996108;28;19926;-86
2021/10/18 09:20:46;;;;;;;;;;;17.30;99.90;;;;;;4978646;28;19921;-84
2021/10/18 09:23:24;;;;;;;;;;;17.30;99.90;;;;;;4979521;28;19922;-85
2021/10/18 09:25:49;;;;;;;;;;;17.30;99.90;;;;;;4990960;28;19921;-86
2021/10/18 09:28:22;;;;;;;;;;;17.30;99.90;;;;;;4987024;28;19981;-85
2021/10/18 09:30:48;;;;;;;;;;;17.30;99.90;;;;;;4993005;28;19945;-85
2021/10/18 09:33:35;;;;;;;;;;;17.30;99.90;;;;;;4997501;28;20193;-84
2021/10/18 09:36:04;;;;;;;;;;;17.30;99.90;;;;;;4994670;28;19985;-84
2021/10/18 09:38:29;;;;;;;;;;;17.20;99.90;;;;;;4994748;28;19984;-83
2021/10/18 09:40:56;;;;;;;;;;;17.10;99.90;;;;;;4991846;28;19946;-83
2021/10/18 09:43:38;;;;;;;;;;;17.30;99.90;;;;;;4989572;28;20005;-84
2021/10/18 09:46:50;;;;;;;;;;;17.40;99.90;;;;;;4991911;28;20032;-85
2021/10/18 10:52:39;;;;;;;;;;;16.80;99.90;;;;;;4998795;28;19982;-82
2021/10/18 10:55:19;;;;;;;;;;;16.70;99.90;;;;;;4986902;28;20014;-84
2021/10/18 10:57:44;;;;;;;;;;;16.70;99.90;;;;;;4981360;28;19967;-85
2021/10/18 11:00:29;;;;;;;;;;;16.70;99.90;;;;;;4983458;28;19914;-83
2021/10/18 11:03:14;;;;;;;;;;;16.60;99.90;;;;;;4986875;28;19929;-85
2021/10/18 11:05:59;;;;;;;;;;;16.60;99.90;;;;;;4972747;28;20027;-84
2021/10/18 11:08:30;;;;;;;;;;;16.60;99.90;;;;;;4993340;28;19965;-83
2021/10/18 11:10:55;;;;;;;;;;;16.80;99.90;;;;;;4989541;28;19921;-84
2021/10/18 11:13:21;;;;;;;;;;;16.90;99.90;;;;;;4991807;28;20314;-83
2021/10/18 11:15:47;;;;;;;;;;;17.00;99.90;;;;;;4996590;28;19921;-83
2021/10/18 11:18:22;;;;;;;;;;;17.10;99.90;;;;;;4976791;28;19914;-85
2021/10/18 11:20:47;;;;;;;;;;;17.10;99.90;;;;;;4994875;28;19953;-85
2021/10/18 11:23:13;;;;;;;;;;;17.00;99.90;;;;;;4991089;28;19938;-84
2021/10/18 11:25:39;;;;;;;;;;;16.90;99.90;;;;;;4994194;28;20024;-84
2021/10/18 11:28:07;;;;;;;;;;;16.90;99.90;;;;;;4996730;28;19918;-85
2021/10/18 11:30:34;;;;;;;;;;;16.90;99.90;;;;;;4995668;28;19949;-82
2021/10/18 11:33:14;;;;;;;;;;;17.10;99.90;;;;;;4990895;28;20080;-91
2021/10/18 11:35:40;;;;;;;;;;;17.00;99.90;;;;;;4991539;28;19914;-83
2021/10/18 11:38:06;;;;;;;;;;;17.00;99.90;;;;;;4990804;28;19918;-86
2021/10/18 11:40:36;;;;;;;;;;;17.10;99.90;;;;;;4971376;28;19926;-84
2021/10/18 11:43:05;;;;;;;;;;;17.20;99.90;;;;;;4995067;28;19949;-86
2021/10/18 11:45:33;;;;;;;;;;;17.10;99.90;;;;;;4977930;28;19953;-85
2021/10/18 11:48:03;;;;;;;;;;;17.20;99.90;;;;;;4987754;28;19914;-86
2021/10/18 11:50:28;;;;;;;;;;;17.00;99.90;;;;;;4994971;28;19918;-85
2021/10/18 11:52:58;;;;;;;;;;;17.00;99.90;;;;;;4994920;28;19933;-85
2021/10/18 11:55:36;;;;;;;;;;;17.00;99.90;;;;;;5000746;28;19925;-85
2021/10/18 11:58:04;;;;;;;;;;;17.00;99.90;;;;;;4980592;28;20010;-85
2021/10/18 12:00:34;;;;;;;;;;;17.00;99.90;;;;;;5017560;23;19940;-86
2021/10/18 12:03:26;;;;;;;;;;;17.10;99.90;;;;;;4993609;28;19917;-87
2021/10/18 12:05:53;;;;;;;;;;;17.00;99.90;;;;;;4983844;28;19913;-86
2021/10/18 12:11:08;;;;;;;;;;;17.00;99.90;;;;;;5243572;23;19963;-87
2021/10/18 12:18:56;;;;;;;;;;;17.20;99.90;;;;;;5135994;23;19913;-89
2021/10/18 12:21:50;;;;;;;;;;;17.30;99.90;;;;;;4996608;28;19912;-88
2021/10/18 12:24:34;;;;;;;;;;;17.30;99.90;;;;;;4989736;28;19910;-87
2021/10/18 12:27:13;;;;;;;;;;;17.40;99.90;;;;;;5012254;28;19912;-88
2021/10/18 12:29:42;;;;;;;;;;;17.40;99.90;;;;;;5009480;28;19902;-88
2021/10/18 12:32:09;;;;;;;;;;;17.40;99.90;;;;;;5011802;28;20114;-88
2021/10/18 12:34:41;;;;;;;;;;;17.30;99.90;;;;;;4998629;28;19909;-87
2021/10/18 12:37:15;;;;;;;;;;;17.30;99.90;;;;;;5013778;28;19907;-87
2021/10/18 12:39:48;;;;;;;;;;;17.40;99.90;;;;;;5010824;28;19930;-89
2021/10/18 12:42:22;;;;;;;;;;;17.50;99.90;;;;;;4986645;28;19922;-89
2021/10/18 12:45:10;;;;;;;;;;;17.50;99.90;;;;;;4988868;28;19985;-89
2021/10/18 12:48:00;;;;;;;;;;;17.40;99.90;;;;;;4997617;28;19925;-88
2021/10/18 12:50:38;;;;;;;;;;;17.50;99.90;;;;;;5017461;28;19910;-88
2021/10/18 12:53:44;;;;;;;;;;;17.50;99.90;;;;;;4994638;28;19966;-88
2021/10/18 12:57:23;;;;;;;;;;;;;;;;;;;;;
2021/10/18 13:02:58;;;;;;;;;;;17.40;99.90;;;;;;4866838;29;19924;-90
2021/10/18 13:06:14;;;;;;;;;;;;;;;;;;;;;
2021/10/18 13:08:40;;;;;;;;;;;17.40;99.90;;;;;;4859544;29;20035;-87
2021/10/18 13:11:10;;;;;;;;;;;17.50;99.90;;;;;;4857929;29;19977;-88
2021/10/18 13:22:40;;;;;;;;;;;17.60;99.90;;;;;;4311113;26;19934;-87
2021/10/18 13:25:06;;;;;;;;;;;17.60;99.90;;;;;;5009334;28;19902;-88
2021/10/18 13:27:38;;;;;;;;;;;17.60;99.90;;;;;;4989719;28;19968;-87
2021/10/18 13:30:08;;;;;;;;;;;17.60;99.90;;;;;;4989050;28;19922;-88
2021/10/18 13:32:34;;;;;;;;;;;17.60;99.90;;;;;;4994246;28;19914;-85
2021/10/18 13:35:00;;;;;;;;;;;17.60;99.90;;;;;;5004449;28;19914;-87
2021/10/18 13:37:26;;;;;;;;;;;17.60;99.90;;;;;;5002651;28;19960;-86
2021/10/18 13:40:15;;;;;;;;;;;17.50;99.90;;;;;;5010802;28;19918;-87
2021/10/18 13:42:45;;;;;;;;;;;17.60;99.90;;;;;;5000813;28;19934;-86
2021/10/18 13:45:20;;;;;;;;;;;17.50;99.90;;;;;;4999553;28;19933;-85
2021/10/18 13:47:47;;;;;;;;;;;17.60;99.90;;;;;;5003088;28;19914;-85
2021/10/18 13:53:23;;;;;;;;;;;17.60;99.90;;;;;;4946710;29;19966;-86
2021/10/18 13:56:07;;;;;;;;;;;;;;;;;;;;;
2021/10/18 13:58:39;;;;;;;;;;;17.60;99.90;;;;;;5005723;28;19957;-87
2021/10/18 14:01:21;;;;;;;;;;;17.70;99.90;;;;;;5004690;28;20399;-86
2021/10/18 14:03:47;;;;;;;;;;;17.70;99.90;;;;;;5010987;28;19911;-86
2021/10/18 14:10:02;;;;;;;;;;;17.60;99.90;;;;;;4997035;28;19909;-86
2021/10/18 14:13:03;;;;;;;;;;;17.60;99.90;;;;;;4994786;28;20002;-86
2021/10/18 14:15:38;;;;;;;;;;;17.60;99.90;;;;;;4988415;28;19929;-86
2021/10/18 14:18:18;;;;;;;;;;;17.50;99.90;;;;;;4990901;28;19945;-84
2021/10/18 14:21:16;;;;;;;;;;;17.50;99.90;;;;;;4995359;28;19957;-87
2021/10/18 14:23:42;;;;;;;;;;;17.50;99.90;;;;;;4911786;29;19912;-86
2021/10/18 14:26:32;;;;;;;;;;;17.40;99.90;;;;;;4882437;29;19912;-86
2021/10/18 14:29:04;;;;;;;;;;;17.50;99.90;;;;;;4959079;28;19922;-87
2021/10/18 14:31:36;;;;;;;;;;;17.50;99.90;;;;;;4987365;28;19902;-87
2021/10/18 14:34:12;;;;;;;;;;;17.40;99.90;;;;;;5000671;28;19926;-87
2021/10/18 14:36:47;;;;;;;;;;;17.40;99.90;;;;;;4992183;28;19914;-87
2021/10/18 14:42:53;;;;;;;;;;;;;;;;;;;;;
2021/10/18 14:45:45;;;;;;;;;;;17.50;99.90;;;;;;4985908;28;19942;-87
2021/10/18 14:48:14;;;;;;;;;;;17.50;99.90;;;;;;4984135;28;19929;-86
2021/10/18 14:51:31;;;;;;;;;;;17.50;99.90;;;;;;4991815;28;19918;-86
2021/10/18 14:53:50;;;;;;;;;;;17.50;99.90;;;;;;4987110;28;19914;-86
2021/10/18 14:59:54;;;;;;;;;;;17.50;99.90;;;;;;4940037;29;19978;-87
2021/10/18 15:02:44;;;;;;;;;;;17.40;99.90;;;;;;4922914;29;19933;-83
2021/10/18 15:05:45;;;;;;;;;;;17.40;99.90;;;;;;4986210;28;19902;-87
2021/10/18 15:08:14;;;;;;;;;;;17.30;99.90;;;;;;4938988;29;19950;-87
2021/10/18 15:13:58;;;;;;;;;;;17.40;99.90;;;;;;4934943;29;19935;-88
2021/10/18 15:22:59;;;;;;;;;;;17.30;99.90;;;;;;4833174;29;19912;-87
2021/10/18 15:25:25;;;;;;;;;;;17.30;99.90;;;;;;4906480;29;19988;-87
2021/10/18 15:28:11;;;;;;;;;;;17.20;99.90;;;;;;4899940;29;19947;-88
2021/10/18 15:30:42;;;;;;;;;;;17.20;99.90;;;;;;4900962;29;19920;-87
2021/10/18 15:33:16;;;;;;;;;;;17.20;99.90;;;;;;4981817;28;19931;-88
2021/10/18 15:35:42;;;;;;;;;;;17.20;99.90;;;;;;4996471;28;19914;-86
2021/10/18 15:38:08;;;;;;;;;;;17.10;99.90;;;;;;4995740;28;19925;-87
2021/10/18 15:40:37;;;;;;;;;;;17.00;99.90;;;;;;5003711;28;20007;-88
2021/10/18 15:43:03;;;;;;;;;;;17.00;99.90;;;;;;4992524;28;19949;-86
2021/10/18 15:45:32;;;;;;;;;;;16.90;99.90;;;;;;4999216;28;19941;-86
2021/10/18 15:48:02;;;;;;;;;;;16.90;99.90;;;;;;4991956;28;19964;-86
2021/10/18 15:50:28;;;;;;;;;;;16.80;99.90;;;;;;4991226;28;19919;-85
2021/10/18 15:52:56;;;;;;;;;;;16.70;99.90;;;;;;5017429;23;19927;-86
2021/10/18 15:55:28;;;;;;;;;;;16.60;99.90;;;;;;4980003;28;19986;-89
2021/10/18 15:57:54;;;;;;;;;;;16.60;99.90;;;;;;4978128;28;19926;-87
2021/10/18 16:00:19;;;;;;;;;;;16.50;99.90;;;;;;4945258;29;19938;-88
2021/10/18 16:02:48;;;;;;;;;;;16.40;99.90;;;;;;4945781;29;19915;-87
2021/10/18 16:05:14;;;;;;;;;;;16.30;99.90;;;;;;4958324;29;19915;-87
2021/10/18 16:07:45;;;;;;;;;;;16.20;99.90;;;;;;4966575;29;19979;-87
2021/10/18 16:10:11;;;;;;;;;;;16.10;99.90;;;;;;4939890;29;19925;-87
2021/10/18 16:12:37;;;;;;;;;;;16.20;99.90;;;;;;4954330;29;19968;-87
2021/10/18 16:15:08;;;;;;;;;;;16.10;99.90;;;;;;4967235;29;19991;-88
2021/10/18 16:20:27;;;;;;;;;;;15.80;99.90;;;;;;5064203;23;19925;-86
2021/10/18 16:22:53;;;;;;;;;;;15.70;99.90;;;;;;4985405;28;19910;-86
2021/10/18 16:25:42;;;;;;;;;;;;;;;;;;;;;
2021/10/18 16:28:16;;;;;;;;;;;15.60;99.90;;;;;;4984453;28;19945;-85
2021/10/18 16:30:48;;;;;;;;;;;15.50;99.90;;;;;;4986641;28;19914;-86
2021/10/18 16:33:21;;;;;;;;;;;15.40;99.90;;;;;;4967978;28;19910;-85
2021/10/18 16:35:53;;;;;;;;;;;15.30;99.90;;;;;;4988146;28;19914;-85
2021/10/18 16:38:22;;;;;;;;;;;15.30;99.90;;;;;;4980697;28;19969;-86
2021/10/18 16:40:47;;;;;;;;;;;15.20;99.90;;;;;;4983160;28;19942;-86
2021/10/18 16:43:16;;;;;;;;;;;15.10;99.90;;;;;;4981003;28;19922;-86
2021/10/18 16:45:54;;;;;;;;;;;15.00;99.90;;;;;;4965781;28;19929;-86
2021/10/18 16:48:30;;;;;;;;;;;15.00;99.90;;;;;;4977228;28;19948;-86
2021/10/18 16:51:26;;;;;;;;;;;15.00;99.90;;;;;;4981406;28;19899;-86
2021/10/18 16:54:14;;;;;;;;;;;14.90;99.90;;;;;;4982250;28;19914;-87
2021/10/18 16:57:28;;;;;;;;;;;14.90;99.90;;;;;;4976658;28;19915;-87
2021/10/18 16:59:57;;;;;;;;;;;14.90;99.90;;;;;;4961345;28;19926;-84
2021/10/18 17:02:27;;;;;;;;;;;14.70;99.90;;;;;;4973091;28;19922;-86
2021/10/18 17:04:52;;;;;;;;;;;14.70;99.90;;;;;;4965801;28;20285;-87
2021/10/18 17:07:36;;;;;;;;;;;14.70;99.90;;;;;;4984520;28;19925;-87
2021/10/18 17:10:06;;;;;;;;;;;14.70;99.90;;;;;;4958296;28;19953;-86
2021/10/18 17:12:31;;;;;;;;;;;14.80;99.90;;;;;;4985929;28;19950;-87
2021/10/18 17:15:07;;;;;;;;;;;14.80;99.90;;;;;;4967347;29;19911;-87
2021/10/18 17:17:37;;;;;;;;;;;14.70;99.90;;;;;;4959675;29;19934;-86
2021/10/18 17:20:06;;;;;;;;;;;14.60;99.90;;;;;;4978598;28;19922;-85
2021/10/18 17:22:42;;;;;;;;;;;14.60;99.90;;;;;;4978351;28;20134;-87
2021/10/18 17:25:08;;;;;;;;;;;14.60;99.90;;;;;;4987876;28;19925;-86
2021/10/18 17:28:19;;;;;;;;;;;14.50;99.90;;;;;;4959509;28;19919;-85
2021/10/18 17:30:35;;;;;;;;;;;14.40;99.90;;;;;;4972444;28;19903;-91
2021/10/18 19:34:54;;;;;;;;;;;13.50;99.90;;;;;;5849900;23;19914;-92
2021/10/18 20:58:38;;;;;;;;;;;14.70;99.90;;;;;;6047868;23;20081;-92
2021/10/18 21:01:03;;;;;;;;;;;14.70;99.90;;;;;;4998175;28;19910;-92
2021/10/18 21:03:29;;;;;;;;;;;14.70;99.90;;;;;;4975886;28;19917;-92
2021/10/18 21:05:54;;;;;;;;;;;14.70;99.90;;;;;;4972719;28;19921;-90
2021/10/18 21:08:20;;;;;;;;;;;14.70;99.90;;;;;;4975341;28;19914;-93
2021/10/18 21:10:46;;;;;;;;;;;14.70;99.90;;;;;;4973180;28;19914;-91
2021/10/18 21:13:12;;;;;;;;;;;14.60;99.90;;;;;;4971536;28;20236;-90
2021/10/18 21:15:38;;;;;;;;;;;14.60;99.90;;;;;;4955614;29;19945;-91
2021/10/18 21:18:04;;;;;;;;;;;14.60;99.90;;;;;;4953939;28;20349;-91
2021/10/18 21:20:29;;;;;;;;;;;14.50;99.90;;;;;;4955183;28;19915;-90
2021/10/18 21:22:58;;;;;;;;;;;14.50;99.90;;;;;;4969115;28;19937;-91
2021/10/18 21:25:25;;;;;;;;;;;14.40;99.90;;;;;;4968832;28;19911;-92
2021/10/18 21:27:53;;;;;;;;;;;14.40;99.90;;;;;;4959807;29;20014;-90
2021/10/18 21:30:23;;;;;;;;;;;14.40;99.90;;;;;;4955770;29;19910;-92
2021/10/18 21:32:51;;;;;;;;;;;14.40;99.90;;;;;;4953372;28;19986;-91
2021/10/18 21:35:17;;;;;;;;;;;14.30;99.90;;;;;;4965367;29;19926;-90
2021/10/18 21:37:43;;;;;;;;;;;14.30;99.90;;;;;;4954844;29;19946;-93
2021/10/18 21:40:09;;;;;;;;;;;14.30;99.90;;;;;;4960740;28;19942;-92
2021/10/18 21:58:04;;;;;;;;;;;14.10;99.90;;;;;;5018962;28;19937;-92
2021/10/18 22:00:37;;;;;;;;;;;14.10;99.90;;;;;;5005577;28;19914;-91
2021/10/18 22:03:06;;;;;;;;;;;14.10;99.90;;;;;;5009971;28;19913;-91
2021/10/18 22:05:32;;;;;;;;;;;14.10;99.90;;;;;;5008765;28;19917;-92
2021/10/18 22:07:58;;;;;;;;;;;14.10;99.90;;;;;;5005305;28;19914;-94
2021/10/18 22:10:23;;;;;;;;;;;14.10;99.90;;;;;;5009318;28;19924;-92
2021/10/18 22:12:51;;;;;;;;;;;14.10;99.90;;;;;;5009789;28;19970;-92
2021/10/18 22:15:17;;;;;;;;;;;14.10;99.90;;;;;;5009843;28;19933;-90
2021/10/18 22:17:43;;;;;;;;;;;14.20;99.90;;;;;;5001987;28;19909;-92
2021/10/18 22:20:09;;;;;;;;;;;14.10;99.90;;;;;;5014673;28;19918;-91
2021/10/18 22:22:35;;;;;;;;;;;14.20;99.90;;;;;;5006148;28;19984;-91
2021/10/18 22:25:00;;;;;;;;;;;14.10;99.90;;;;;;5010643;28;19910;-92
2021/10/18 22:27:26;;;;;;;;;;;14.10;99.90;;;;;;5022055;28;19933;-91
2021/10/18 22:29:55;;;;;;;;;;;14.10;99.90;;;;;;5025445;28;19914;-91
2021/10/18 22:32:24;;;;;;;;;;;14.10;99.90;;;;;;5009504;28;20009;-92
2021/10/18 22:34:50;;;;;;;;;;;14.10;99.90;;;;;;5027990;28;19921;-91
2021/10/18 22:37:15;;;;;;;;;;;14.10;99.90;;;;;;5006210;28;19914;-92
2021/10/18 22:39:42;;;;;;;;;;;14.10;99.90;;;;;;5002842;28;19979;-90
2021/10/18 22:42:07;;;;;;;;;;;14.00;99.90;;;;;;5012140;28;19914;-92
2021/10/18 22:44:33;;;;;;;;;;;14.00;99.90;;;;;;5016210;28;19956;-91
2021/10/18 22:46:59;;;;;;;;;;;14.00;99.90;;;;;;5017893;28;19912;-94